createdAt,value
2024-02-13T00:00:10.189Z,43.72
2024-02-13T00:02:38.398Z,49.63
2024-02-13T00:05:09.416Z,46.35
2024-02-13T00:07:37.622Z,29.15
2024-02-13T00:10:05.968Z,29.70
2024-02-13T00:12:32.458Z,29.08
2024-02-13T00:14:59.697Z,33.60
2024-02-13T00:17:26.494Z,34.13
2024-02-13T00:19:53.767Z,29.23
2024-02-13T00:22:20.818Z,29.23
2024-02-13T00:24:49.217Z,31.80
2024-02-13T00:27:16.449Z,28.95
2024-02-13T00:29:45.835Z,26.30
2024-02-13T00:32:13.612Z,23.45
2024-02-13T00:34:41.169Z,23.73
2024-02-13T00:37:09.365Z,27.38
2024-02-13T00:39:35.907Z,24.90
2024-02-13T00:42:04.015Z,22.90
2024-02-13T00:44:31.027Z,25.77
2024-02-13T00:46:58.514Z,28.80
2024-02-13T00:49:25.093Z,27.88
2024-02-13T00:51:51.661Z,26.90
2024-02-13T00:54:18.268Z,26.30
2024-02-13T00:56:44.977Z,32.80
2024-02-13T00:59:11.811Z,27.50
2024-02-13T01:01:39.032Z,26.67
2024-02-13T01:04:07.549Z,31.77
2024-02-13T01:06:34.974Z,32.47
2024-02-13T01:09:04.322Z,35.97
2024-02-13T01:11:30.904Z,35.53
2024-02-13T01:13:57.600Z,37.95
2024-02-13T01:16:26.652Z,43.08
2024-02-13T01:18:53.566Z,37.28
2024-02-13T01:21:20.273Z,33.90
2024-02-13T01:23:47.445Z,33.53
2024-02-13T01:26:14.822Z,38.65
2024-02-13T01:28:41.724Z,39.80
2024-02-13T01:31:08.353Z,86.38
2024-02-13T01:33:35.056Z,41.97
2024-02-13T01:36:02.864Z,99.10
2024-02-13T01:38:31.344Z,130.85
2024-02-13T01:40:58.216Z,59.15
2024-02-13T01:43:26.324Z,143.93
2024-02-13T01:45:54.008Z,87.00
2024-02-13T01:48:22.451Z,98.65
2024-02-13T01:50:50.563Z,90.38
2024-02-13T01:53:19.683Z,115.68
2024-02-13T01:55:47.076Z,63.17
2024-02-13T01:58:13.859Z,93.75
2024-02-13T02:00:40.588Z,106.70
2024-02-13T02:03:10.045Z,66.53
2024-02-13T02:05:36.657Z,94.68
2024-02-13T02:08:03.457Z,83.20
2024-02-13T02:10:29.890Z,88.85
2024-02-13T02:12:56.404Z,81.72
2024-02-13T02:15:22.978Z,83.38
2024-02-13T02:17:56.289Z,108.07
2024-02-13T02:20:24.015Z,117.03
2024-02-13T02:22:51.522Z,80.65
2024-02-13T02:25:19.773Z,75.95
2024-02-13T02:27:46.723Z,63.55
2024-02-13T02:30:14.566Z,63.45
2024-02-13T02:32:42.046Z,59.88
2024-02-13T02:35:30.878Z,45.75
2024-02-13T02:37:58.995Z,57.58
2024-02-13T02:40:25.521Z,78.40
2024-02-13T02:42:56.659Z,42.92
2024-02-13T02:45:23.416Z,62.30
2024-02-13T02:47:50.947Z,65.20
2024-02-13T02:50:17.643Z,66.03
2024-02-13T02:52:44.512Z,79.47
2024-02-13T02:55:11.435Z,66.45
2024-02-13T02:57:39.295Z,93.07
2024-02-13T03:00:13.874Z,178.68
2024-02-13T03:02:43.016Z,100.38
2024-02-13T03:05:12.879Z,59.25
2024-02-13T03:07:39.575Z,128.20
2024-02-13T03:10:11.531Z,86.43
2024-02-13T03:12:39.076Z,52.55
2024-02-13T03:15:05.929Z,83.43
2024-02-13T03:17:32.966Z,74.70
2024-02-13T03:20:02.009Z,60.53
2024-02-13T03:22:29.244Z,69.20
2024-02-13T03:24:57.901Z,54.20
2024-02-13T03:27:24.479Z,52.97
2024-02-13T03:29:51.032Z,71.10
2024-02-13T03:32:17.854Z,58.90
2024-02-13T03:34:44.483Z,64.30
2024-02-13T03:37:10.986Z,58.22
2024-02-13T03:39:37.483Z,66.20
2024-02-13T03:42:04.259Z,71.13
2024-02-13T03:44:30.798Z,105.97
2024-02-13T03:46:57.291Z,94.80
2024-02-13T03:49:23.996Z,57.58
2024-02-13T03:51:50.520Z,54.97
2024-02-13T03:54:17.138Z,95.75
2024-02-13T03:56:44.626Z,53.67
2024-02-13T03:59:14.031Z,106.32
2024-02-13T04:01:42.182Z,42.22
2024-02-13T04:04:09.477Z,69.45
2024-02-13T04:06:36.764Z,44.05
2024-02-13T04:09:04.653Z,68.22
2024-02-13T04:11:31.615Z,48.30
2024-02-13T04:13:58.680Z,57.03
2024-02-13T04:16:25.287Z,44.47
2024-02-13T04:18:54.396Z,61.17
2024-02-13T04:21:21.459Z,86.18
2024-02-13T04:23:51.654Z,61.45
2024-02-13T04:26:30.972Z,62.28
2024-02-13T04:29:03.406Z,69.10
2024-02-13T04:31:31.905Z,58.78
2024-02-13T04:33:58.756Z,72.70
2024-02-13T04:36:25.539Z,89.90
2024-02-13T04:38:52.208Z,69.80
2024-02-13T04:41:21.613Z,85.40
2024-02-13T04:43:48.665Z,52.58
2024-02-13T04:46:15.296Z,77.20
2024-02-13T04:49:16.345Z,61.03
2024-02-13T04:51:44.419Z,67.88
2024-02-13T04:54:10.897Z,97.22
2024-02-13T04:56:37.618Z,81.47
2024-02-13T04:59:16.217Z,66.20
2024-02-13T05:01:46.406Z,79.35
2024-02-13T05:05:50.967Z,57.22
2024-02-13T05:07:20.861Z,86.35
2024-02-13T05:09:47.889Z,97.47
2024-02-13T05:12:15.911Z,72.50
2024-02-13T05:14:43.167Z,97.72
2024-02-13T05:17:09.768Z,83.53
2024-02-13T05:19:36.197Z,97.57
2024-02-13T05:22:02.715Z,101.88
2024-02-13T05:24:30.133Z,66.85
2024-02-13T05:26:56.981Z,88.13
2024-02-13T05:29:23.690Z,82.97
2024-02-13T05:31:52.347Z,72.63
2024-02-13T05:34:18.957Z,84.47
2024-02-13T05:36:45.652Z,73.20
2024-02-13T05:39:12.101Z,130.13
2024-02-13T05:41:38.865Z,78.82
2024-02-13T05:44:05.428Z,94.90
2024-02-13T05:46:32.000Z,100.78
2024-02-13T05:49:01.350Z,82.65
2024-02-13T05:51:28.308Z,72.53
2024-02-13T05:53:54.919Z,91.05
2024-02-13T05:56:27.219Z,101.38
2024-02-13T05:58:56.974Z,67.97
2024-02-13T06:02:20.146Z,79.43
2024-02-13T06:04:46.716Z,87.15
2024-02-13T06:07:14.911Z,87.07
2024-02-13T06:13:30.349Z,78.53
2024-02-13T06:15:56.878Z,78.90
2024-02-13T06:18:24.589Z,80.78
2024-02-13T06:20:51.739Z,93.82
2024-02-13T06:23:18.647Z,86.90
2024-02-13T06:25:45.330Z,79.13
2024-02-13T06:28:12.106Z,79.90
2024-02-13T06:30:40.488Z,90.50
2024-02-13T06:33:07.245Z,93.72
2024-02-13T06:35:34.721Z,95.65
2024-02-13T06:38:01.246Z,85.35
2024-02-13T06:40:27.808Z,87.20
2024-02-13T06:42:54.371Z,99.65
2024-02-13T06:45:21.084Z,93.28
2024-02-13T06:47:47.621Z,103.15
2024-02-13T06:50:14.584Z,104.93
2024-02-13T06:52:42.320Z,87.57
2024-02-13T06:55:09.747Z,96.00
2024-02-13T06:57:37.151Z,91.45
2024-02-13T07:00:08.759Z,99.82
2024-02-13T07:02:36.322Z,88.22
2024-02-13T07:05:03.017Z,96.78
2024-02-13T07:08:04.042Z,88.47
2024-02-13T07:10:30.967Z,89.03
2024-02-13T07:13:00.352Z,83.38
2024-02-13T07:15:26.919Z,91.07
2024-02-13T07:18:00.015Z,82.55
2024-02-13T07:20:28.183Z,86.43
2024-02-13T07:22:54.970Z,67.57
2024-02-13T07:25:21.500Z,67.68
2024-02-13T07:27:50.228Z,66.30
2024-02-13T07:30:17.062Z,73.97
2024-02-13T07:32:46.032Z,67.57
2024-02-13T07:35:12.760Z,64.15
2024-02-13T07:37:39.226Z,60.72
2024-02-13T07:40:06.344Z,77.65
2024-02-13T07:42:32.770Z,69.07
2024-02-13T07:45:00.315Z,67.90
2024-02-13T07:47:27.993Z,60.63
2024-02-13T07:49:56.135Z,72.97
2024-02-13T07:52:22.679Z,63.15
2024-02-13T07:54:49.296Z,74.10
2024-02-13T07:57:17.339Z,59.95
2024-02-13T07:59:44.893Z,70.57
2024-02-13T08:02:12.022Z,61.15
2024-02-13T08:04:39.482Z,61.55
2024-02-13T08:07:08.850Z,65.95
2024-02-13T08:09:35.868Z,72.78
2024-02-13T08:12:04.148Z,64.95
2024-02-13T08:14:31.783Z,64.05
2024-02-13T08:16:59.743Z,58.30
2024-02-13T08:19:27.441Z,60.63
2024-02-13T08:21:54.001Z,74.80
2024-02-13T08:24:22.072Z,67.13
2024-02-13T08:26:49.536Z,54.83
2024-02-13T08:29:16.266Z,61.47
2024-02-13T08:31:42.793Z,55.90
2024-02-13T08:34:09.482Z,63.53
2024-02-13T08:36:38.228Z,56.47
2024-02-13T08:39:04.892Z,58.17
2024-02-13T08:41:32.912Z,60.10
2024-02-13T08:44:00.217Z,57.88
2024-02-13T08:46:26.732Z,53.67
2024-02-13T08:48:53.570Z,63.55
2024-02-13T08:51:20.366Z,68.43
2024-02-13T08:53:47.961Z,58.83
2024-02-13T08:56:14.951Z,70.82
2024-02-13T08:58:42.082Z,55.65
2024-02-13T09:01:09.566Z,58.50
2024-02-13T09:03:36.167Z,60.40
2024-02-13T09:06:06.082Z,57.13
2024-02-13T09:08:34.220Z,60.47
2024-02-13T09:11:00.740Z,61.67
2024-02-13T09:13:29.844Z,55.00
2024-02-13T09:15:56.609Z,66.57
2024-02-13T09:18:24.273Z,69.20
2024-02-13T09:20:51.124Z,65.22
2024-02-13T09:23:21.150Z,63.50
2024-02-13T09:25:52.696Z,65.82
2024-02-13T09:30:48.890Z,62.92
2024-02-13T09:33:15.942Z,56.20
2024-02-13T09:35:42.602Z,53.22
2024-02-13T09:38:09.323Z,54.13
2024-02-13T09:40:35.961Z,51.85
2024-02-13T09:43:02.858Z,55.10
2024-02-13T09:45:30.632Z,56.25
2024-02-13T09:48:07.619Z,52.70
2024-02-13T09:50:38.405Z,54.78
2024-02-13T09:53:15.745Z,52.50
2024-02-13T09:55:44.361Z,44.40
2024-02-13T09:58:11.726Z,53.60
2024-02-13T10:00:38.287Z,49.83
2024-02-13T10:03:07.328Z,56.65
2024-02-13T10:05:34.187Z,45.55
2024-02-13T10:08:01.003Z,44.20
2024-02-13T10:10:27.601Z,54.55
2024-02-13T10:12:56.309Z,49.92
2024-02-13T10:15:55.983Z,52.85
2024-02-13T10:18:26.380Z,44.22
2024-02-13T10:20:53.028Z,55.15
2024-02-13T10:23:25.595Z,40.80
2024-02-13T10:25:53.696Z,38.72
2024-02-13T10:28:20.720Z,45.38
2024-02-13T10:30:53.940Z,39.03
2024-02-13T10:33:20.784Z,42.40
2024-02-13T10:35:54.056Z,43.17
2024-02-13T10:38:24.669Z,42.35
2024-02-13T10:40:53.218Z,43.63
2024-02-13T10:43:20.546Z,40.40
2024-02-13T10:45:50.305Z,41.53
2024-02-13T10:48:26.538Z,36.83
2024-02-13T10:50:55.106Z,45.00
2024-02-13T10:53:22.469Z,44.45
2024-02-13T10:55:54.186Z,41.13
2024-02-13T10:58:28.279Z,42.22
2024-02-13T11:01:00.353Z,38.42
2024-02-13T11:03:27.342Z,44.70
2024-02-13T11:05:54.224Z,41.42
2024-02-13T11:08:21.430Z,38.08
2024-02-13T11:10:47.999Z,33.78
2024-02-13T11:13:19.543Z,31.60
2024-02-13T11:15:47.559Z,35.75
2024-02-13T11:18:14.701Z,29.13
2024-02-13T11:20:43.509Z,30.80
2024-02-13T11:23:17.313Z,29.70
2024-02-13T11:25:57.294Z,30.23
2024-02-13T11:28:23.788Z,28.95
2024-02-13T11:30:50.670Z,31.92
2024-02-13T11:33:21.328Z,26.92
2024-02-13T11:35:56.125Z,30.80
2024-02-13T11:38:27.259Z,28.65
2024-02-13T11:40:56.652Z,35.85
2024-02-13T11:43:30.250Z,31.40
2024-02-13T11:45:58.507Z,32.63
2024-02-13T11:48:31.658Z,26.55
2024-02-13T11:51:00.956Z,31.73
2024-02-13T11:53:29.452Z,30.50
2024-02-13T11:55:56.543Z,33.67
2024-02-13T11:58:24.103Z,28.13
2024-02-13T12:01:01.679Z,30.70
2024-02-13T12:03:32.114Z,31.23
2024-02-13T12:06:00.266Z,27.57
2024-02-13T12:08:29.078Z,27.98
2024-02-13T12:10:58.940Z,26.73
2024-02-13T12:13:25.857Z,27.65
2024-02-13T12:15:52.879Z,23.95
2024-02-13T12:18:19.640Z,32.90
2024-02-13T12:20:48.248Z,26.00
2024-02-13T12:23:17.232Z,31.23
2024-02-13T12:25:47.044Z,29.55
2024-02-13T12:28:14.386Z,25.77
2024-02-13T12:30:51.732Z,28.30
2024-02-13T12:33:24.303Z,23.05
2024-02-13T12:36:06.905Z,35.05
2024-02-13T12:38:34.504Z,24.02
2024-02-13T12:41:01.089Z,26.23
2024-02-13T12:43:30.578Z,28.80
2024-02-13T12:46:03.736Z,25.92
2024-02-13T12:48:37.787Z,28.42
2024-02-13T12:51:10.579Z,27.42
2024-02-13T12:53:38.298Z,29.08
2024-02-13T12:56:05.684Z,23.55
2024-02-13T12:58:33.795Z,24.05
2024-02-13T13:01:16.931Z,19.98
2024-02-13T13:03:48.138Z,25.50
2024-02-13T13:06:15.598Z,24.73
2024-02-13T13:08:43.507Z,21.10
2024-02-13T13:11:10.774Z,21.08
2024-02-13T13:13:39.957Z,24.27
2024-02-13T13:16:08.281Z,34.35
2024-02-13T13:18:40.021Z,21.08
2024-02-13T13:21:07.010Z,22.50
2024-02-13T13:23:34.825Z,21.73
2024-02-13T13:26:02.353Z,24.42
2024-02-13T13:28:30.751Z,19.55
2024-02-13T13:31:02.078Z,19.00
2024-02-13T13:36:00.687Z,18.05
2024-02-13T13:38:29.851Z,22.23
2024-02-13T13:41:02.230Z,21.40
2024-02-13T13:43:30.146Z,19.40
2024-02-13T13:45:59.104Z,21.05
2024-02-13T13:48:28.557Z,23.05
2024-02-13T13:50:55.464Z,20.52
2024-02-13T13:53:24.228Z,19.65
2024-02-13T13:55:50.730Z,19.27
2024-02-13T13:58:17.536Z,21.23
2024-02-13T14:00:44.699Z,17.13
2024-02-13T14:03:14.600Z,18.33
2024-02-13T14:05:41.230Z,19.08
2024-02-13T14:08:10.364Z,18.63
2024-02-13T14:10:38.237Z,21.38
2024-02-13T14:13:05.430Z,21.10
2024-02-13T14:15:35.786Z,19.88
2024-02-13T14:18:03.451Z,34.10
2024-02-13T14:20:38.755Z,17.67
2024-02-13T14:23:06.435Z,17.63
2024-02-13T14:25:33.206Z,21.60
2024-02-13T14:27:59.722Z,23.13
2024-02-13T14:30:26.991Z,19.75
2024-02-13T14:32:55.727Z,22.67
2024-02-13T14:35:23.050Z,22.52
2024-02-13T14:37:52.981Z,19.60
2024-02-13T14:40:21.898Z,19.13
2024-02-13T14:42:48.942Z,22.45
2024-02-13T14:45:16.544Z,17.80
2024-02-13T14:47:43.547Z,19.63
2024-02-13T14:50:11.888Z,22.85
2024-02-13T14:52:40.112Z,18.95
2024-02-13T14:55:10.676Z,22.63
2024-02-13T14:57:44.064Z,16.25
2024-02-13T15:00:21.602Z,18.90
2024-02-13T15:02:49.119Z,20.25
2024-02-13T15:05:17.116Z,19.08
2024-02-13T15:07:45.651Z,20.67
2024-02-13T15:10:15.526Z,22.58
2024-02-13T15:12:42.016Z,18.85
2024-02-13T15:15:11.566Z,25.13
2024-02-13T15:17:38.209Z,18.42
2024-02-13T15:20:08.153Z,20.40
2024-02-13T15:22:36.450Z,22.83
2024-02-13T15:25:04.454Z,20.73
2024-02-13T15:27:32.098Z,21.35
2024-02-13T15:29:58.618Z,19.52
2024-02-13T15:32:25.345Z,17.23
2024-02-13T15:34:55.021Z,28.33
2024-02-13T15:37:40.240Z,18.27
2024-02-13T15:40:25.555Z,18.20
2024-02-13T15:43:10.471Z,19.00
2024-02-13T15:45:55.268Z,23.27
2024-02-13T15:48:21.873Z,21.45
2024-02-13T15:50:48.436Z,22.20
2024-02-13T15:53:15.492Z,18.90
2024-02-13T15:55:42.420Z,19.65
2024-02-13T15:58:08.872Z,22.35
2024-02-13T16:00:35.333Z,21.67
2024-02-13T16:03:04.015Z,21.98
2024-02-13T16:05:31.307Z,20.52
2024-02-13T16:08:00.847Z,23.38
2024-02-13T16:10:30.394Z,20.45
2024-02-13T16:12:57.430Z,20.80
2024-02-13T16:15:24.663Z,21.40
2024-02-13T16:17:51.455Z,23.77
2024-02-13T16:20:18.021Z,23.92
2024-02-13T16:22:47.463Z,23.40
2024-02-13T16:25:14.738Z,25.73
2024-02-13T16:27:41.590Z,20.17
2024-02-13T16:30:11.656Z,21.40
2024-02-13T16:32:40.750Z,25.38
2024-02-13T16:35:10.352Z,33.67
2024-02-13T16:37:37.880Z,31.10
2024-02-13T16:40:06.460Z,27.48
2024-02-13T16:42:34.016Z,26.90
2024-02-13T16:45:00.730Z,28.70
2024-02-13T16:47:27.446Z,32.30
2024-02-13T16:49:58.831Z,36.10
2024-02-13T16:52:27.846Z,30.00
2024-02-13T16:54:54.314Z,29.05
2024-02-13T16:57:20.883Z,25.08
2024-02-13T16:59:47.349Z,29.40
2024-02-13T17:02:16.038Z,31.15
2024-02-13T17:04:43.561Z,28.48
2024-02-13T17:07:11.027Z,29.23
2024-02-13T17:09:37.599Z,26.75
2024-02-13T17:12:04.338Z,28.48
2024-02-13T17:14:31.716Z,32.67
2024-02-13T17:16:58.439Z,37.33
2024-02-13T17:19:25.975Z,38.78
2024-02-13T17:21:52.763Z,37.03
2024-02-13T17:24:19.232Z,37.22
2024-02-13T17:26:45.754Z,28.40
2024-02-13T17:29:12.618Z,34.20
2024-02-13T17:31:39.075Z,36.03
2024-02-13T17:34:05.789Z,46.80
2024-02-13T17:36:32.614Z,35.80
2024-02-13T17:38:59.165Z,33.75
2024-02-13T17:41:28.606Z,45.00
2024-02-13T17:43:59.210Z,38.35
2024-02-13T17:46:26.962Z,40.08
2024-02-13T17:48:53.792Z,56.65
2024-02-13T17:51:20.380Z,58.00
2024-02-13T17:53:47.144Z,50.95
2024-02-13T17:56:13.735Z,46.17
2024-02-13T17:58:40.280Z,63.08
2024-02-13T18:01:06.928Z,49.72
2024-02-13T18:03:33.647Z,48.70
2024-02-13T18:06:02.805Z,45.92
2024-02-13T18:08:29.546Z,46.80
2024-02-13T18:10:56.153Z,44.42
2024-02-13T18:13:23.393Z,33.15
2024-02-13T18:15:51.194Z,45.47
2024-02-13T18:18:19.254Z,39.75
2024-02-13T18:20:46.650Z,42.33
2024-02-13T18:23:13.893Z,42.85
2024-02-13T18:25:40.485Z,40.72
2024-02-13T18:28:07.277Z,41.00
2024-02-13T18:30:33.830Z,48.10
2024-02-13T18:33:00.566Z,39.55
2024-02-13T18:35:28.151Z,37.40
2024-02-13T18:37:54.797Z,41.20
2024-02-13T18:40:21.889Z,41.47
2024-02-13T18:42:48.462Z,51.95
2024-02-13T18:45:15.059Z,60.35
2024-02-13T18:47:45.285Z,65.90
2024-02-13T18:50:12.097Z,68.37
2024-02-13T18:52:38.654Z,58.28
2024-02-13T18:55:09.833Z,67.28
2024-02-13T19:00:07.388Z,49.40
2024-02-13T19:02:34.663Z,51.60
2024-02-13T19:05:01.539Z,45.17
2024-02-13T19:07:28.352Z,48.05
2024-02-13T19:09:54.952Z,37.80
2024-02-13T19:12:21.410Z,34.25
2024-02-13T19:14:47.924Z,32.45
2024-02-13T19:17:16.247Z,44.25
2024-02-13T19:19:42.985Z,33.45
2024-02-13T19:22:09.486Z,33.63
2024-02-13T19:24:36.019Z,37.45
2024-02-13T19:27:02.962Z,37.55
2024-02-13T19:29:29.551Z,30.38
2024-02-13T19:31:56.030Z,34.33
2024-02-13T19:34:24.790Z,36.80
2024-02-13T19:36:53.156Z,35.70
2024-02-13T19:39:21.144Z,44.25
2024-02-13T19:41:47.660Z,37.65
2024-02-13T19:44:15.173Z,38.80
2024-02-13T19:46:42.609Z,41.08
2024-02-13T19:49:11.457Z,46.42
2024-02-13T19:51:41.798Z,39.42
2024-02-13T19:54:08.396Z,34.53
2024-02-13T19:56:34.920Z,38.67
2024-02-13T19:59:01.460Z,35.35
2024-02-13T20:01:28.089Z,31.38
2024-02-13T20:03:54.777Z,34.38
2024-02-13T20:06:21.869Z,30.67
2024-02-13T20:08:48.556Z,33.92
2024-02-13T20:11:17.557Z,42.22
2024-02-13T20:13:45.068Z,37.33
2024-02-13T20:16:11.559Z,42.72
2024-02-13T20:18:38.312Z,40.63
2024-02-13T20:21:05.330Z,41.28
2024-02-13T20:23:36.681Z,36.25
2024-02-13T20:26:03.273Z,36.60
2024-02-13T20:28:29.737Z,46.38
2024-02-13T20:30:56.366Z,39.45
2024-02-13T20:33:23.714Z,38.72
2024-02-13T20:35:59.921Z,34.03
2024-02-13T20:38:26.544Z,44.55
2024-02-13T20:40:56.238Z,31.65
2024-02-13T20:43:27.956Z,37.20
2024-02-13T20:45:54.694Z,36.58
2024-02-13T20:48:23.041Z,39.65
2024-02-13T20:50:49.591Z,36.28
2024-02-13T20:53:16.168Z,44.03
2024-02-13T20:55:42.749Z,42.53
2024-02-13T20:58:10.433Z,38.65
2024-02-13T21:00:37.231Z,36.47
2024-02-13T21:03:04.626Z,45.97
2024-02-13T21:05:31.426Z,36.47
2024-02-13T21:07:58.915Z,32.90
2024-02-13T21:10:27.287Z,32.55
2024-02-13T21:12:54.164Z,30.15
2024-02-13T21:15:20.612Z,34.58
2024-02-13T21:17:47.078Z,37.33
2024-02-13T21:20:15.094Z,38.03
2024-02-13T21:23:00.565Z,39.30
2024-02-13T21:25:27.108Z,43.03
2024-02-13T21:27:53.609Z,37.97
2024-02-13T21:30:20.164Z,38.95
2024-02-13T21:32:47.688Z,38.75
2024-02-13T21:35:14.818Z,43.58
2024-02-13T21:37:42.380Z,43.15
2024-02-13T21:40:14.881Z,35.38
2024-02-13T21:42:42.405Z,44.33
2024-02-13T21:45:09.624Z,45.65
2024-02-13T21:47:41.951Z,46.47
2024-02-13T21:50:15.046Z,49.50
2024-02-13T21:52:42.010Z,48.58
2024-02-13T21:55:08.918Z,36.03
2024-02-13T21:57:35.416Z,41.40
2024-02-13T22:00:06.248Z,48.22
2024-02-13T22:02:36.791Z,47.15
2024-02-13T22:05:07.369Z,45.92
2024-02-13T22:07:35.211Z,47.63
2024-02-13T22:10:01.759Z,46.90
2024-02-13T22:12:28.265Z,45.25
2024-02-13T22:14:54.770Z,39.67
2024-02-13T22:17:21.336Z,27.88
2024-02-13T22:19:47.975Z,25.52
2024-02-13T22:22:14.462Z,21.70
2024-02-13T22:24:40.945Z,24.05
2024-02-13T22:27:07.718Z,34.95
2024-02-13T22:29:34.807Z,47.90
2024-02-13T22:32:01.353Z,39.15
2024-02-13T22:34:28.798Z,44.60
2024-02-13T22:36:55.443Z,38.08
2024-02-13T22:39:21.953Z,43.13
2024-02-13T22:41:48.587Z,29.60
2024-02-13T22:44:15.087Z,27.40
2024-02-13T22:46:41.849Z,30.30
2024-02-13T22:49:08.415Z,30.55
2024-02-13T22:51:35.031Z,29.75
2024-02-13T22:54:01.581Z,31.05
2024-02-13T22:56:28.125Z,28.00
2024-02-13T22:58:56.548Z,30.10
2024-02-13T23:01:24.891Z,30.45
2024-02-13T23:03:51.696Z,30.33
2024-02-13T23:06:18.418Z,29.77
2024-02-13T23:08:45.181Z,32.67
2024-02-13T23:11:11.807Z,29.23
2024-02-13T23:13:42.894Z,32.70
2024-02-13T23:16:12.603Z,24.30
2024-02-13T23:18:41.382Z,23.75
2024-02-13T23:21:08.247Z,26.67
2024-02-13T23:23:35.169Z,24.75
2024-02-13T23:26:02.294Z,23.58
2024-02-13T23:28:35.842Z,23.38
2024-02-13T23:31:10.725Z,25.48
2024-02-13T23:33:37.287Z,28.08
2024-02-13T23:36:04.207Z,25.05
2024-02-13T23:38:31.035Z,29.42
2024-02-13T23:40:57.650Z,24.92
2024-02-13T23:43:24.125Z,26.42
2024-02-13T23:45:50.632Z,27.20
2024-02-13T23:48:20.698Z,26.27
2024-02-13T23:50:47.370Z,21.20
2024-02-13T23:53:14.839Z,19.20
2024-02-13T23:55:41.431Z,21.23
2024-02-13T23:58:08.094Z,24.95
